createdAt,value
2022-08-27T00:00:49.804Z,1007.27
2022-08-27T00:01:49.917Z,1007.26
2022-08-27T00:02:49.783Z,1007.26
2022-08-27T00:03:49.751Z,1007.28
2022-08-27T00:04:49.695Z,1007.29
2022-08-27T00:05:49.771Z,1007.31
2022-08-27T00:06:49.647Z,1007.28
2022-08-27T00:07:49.641Z,1007.26
2022-08-27T00:08:49.640Z,1007.29
2022-08-27T00:09:49.676Z,1007.26
2022-08-27T00:10:49.628Z,1007.28
2022-08-27T00:11:49.668Z,1007.26
2022-08-27T00:12:49.569Z,1007.26
2022-08-27T00:13:50.419Z,1007.23
2022-08-27T00:14:49.588Z,1007.27
2022-08-27T00:15:49.540Z,1007.28
2022-08-27T00:16:49.579Z,1007.24
2022-08-27T00:17:49.540Z,1007.23
2022-08-27T00:18:49.504Z,1007.26
2022-08-27T00:19:49.623Z,1007.25
2022-08-27T00:20:49.576Z,1007.23
2022-08-27T00:21:49.469Z,1007.22
2022-08-27T00:22:49.442Z,1007.23
2022-08-27T00:23:51.033Z,1007.21
2022-08-27T00:24:49.499Z,1007.21
2022-08-27T00:25:50.295Z,1007.18
2022-08-27T00:26:49.544Z,1007.19
2022-08-27T00:27:49.401Z,1007.21
2022-08-27T00:28:49.405Z,1007.22
2022-08-27T00:29:49.436Z,1007.22
2022-08-27T00:30:49.537Z,1007.22
2022-08-27T00:31:52.720Z,1007.21
2022-08-27T00:32:49.307Z,1007.21
2022-08-27T00:33:49.370Z,1007.23
2022-08-27T00:34:49.287Z,1007.23
2022-08-27T00:35:49.319Z,1007.22
2022-08-27T00:36:49.329Z,1007.21
2022-08-27T00:37:49.267Z,1007.24
2022-08-27T00:38:49.267Z,1007.23
2022-08-27T00:39:49.276Z,1007.18
2022-08-27T00:40:49.279Z,1007.27
2022-08-27T00:41:49.272Z,1007.25
2022-08-27T00:42:49.181Z,1007.28
2022-08-27T00:43:49.199Z,1007.28
2022-08-27T00:44:49.196Z,1007.26
2022-08-27T00:45:49.246Z,1007.33
2022-08-27T00:46:49.124Z,1007.31
2022-08-27T00:47:49.142Z,1007.33
2022-08-27T00:48:49.245Z,1007.35
2022-08-27T00:49:49.129Z,1007.30
2022-08-27T00:50:49.082Z,1007.33
2022-08-27T00:51:49.709Z,1007.32
2022-08-27T00:52:49.170Z,1007.35
2022-08-27T00:53:49.053Z,1007.39
2022-08-27T00:54:49.082Z,1007.34
2022-08-27T00:55:49.028Z,1007.36
2022-08-27T00:56:51.848Z,1007.35
2022-08-27T00:57:49.022Z,1007.37
2022-08-27T00:58:49.004Z,1007.40
2022-08-27T00:59:48.959Z,1007.40
2022-08-27T01:00:49.003Z,1007.44
2022-08-27T01:01:49.031Z,1007.46
2022-08-27T01:02:48.935Z,1007.42
2022-08-27T01:03:48.936Z,1007.42
2022-08-27T01:04:48.907Z,1007.45
2022-08-27T01:05:48.928Z,1007.39
2022-08-27T01:06:48.886Z,1007.41
2022-08-27T01:07:48.887Z,1007.42
2022-08-27T01:08:48.896Z,1007.38
2022-08-27T01:09:50.040Z,1007.37
2022-08-27T01:10:48.933Z,1007.39
2022-08-27T01:11:48.865Z,1007.45
2022-08-27T01:12:53.486Z,1007.41
2022-08-27T01:14:00.682Z,1007.41
2022-08-27T01:14:49.897Z,1007.43
2022-08-27T01:15:48.830Z,1007.42
2022-08-27T01:16:48.767Z,1007.48
2022-08-27T01:17:48.858Z,1007.46
2022-08-27T01:18:48.711Z,1007.45
2022-08-27T01:19:48.710Z,1007.46
2022-08-27T01:20:48.698Z,1007.46
2022-08-27T01:21:48.710Z,1007.43
2022-08-27T01:22:50.162Z,1007.41
2022-08-27T01:23:48.650Z,1007.41
2022-08-27T01:24:48.678Z,1007.42
2022-08-27T01:25:48.669Z,1007.42
2022-08-27T01:26:48.685Z,1007.45
2022-08-27T01:27:48.609Z,1007.44
2022-08-27T01:28:48.589Z,1007.43
2022-08-27T01:29:49.783Z,1007.44
2022-08-27T01:30:48.587Z,1007.46
2022-08-27T01:31:48.630Z,1007.42
2022-08-27T01:32:48.589Z,1007.41
2022-08-27T01:33:48.525Z,1007.40
2022-08-27T01:34:49.307Z,1007.38
2022-08-27T01:35:48.506Z,1007.39
2022-08-27T01:36:48.515Z,1007.40
2022-08-27T01:37:48.522Z,1007.40
2022-08-27T01:38:48.488Z,1007.40
2022-08-27T01:39:48.463Z,1007.40
2022-08-27T01:40:48.461Z,1007.40
2022-08-27T01:41:48.419Z,1007.41
2022-08-27T01:42:49.560Z,1007.40
2022-08-27T01:43:48.575Z,1007.43
2022-08-27T01:44:48.383Z,1007.40
2022-08-27T01:45:48.455Z,1007.43
2022-08-27T01:46:48.402Z,1007.42
2022-08-27T01:47:48.437Z,1007.44
2022-08-27T01:48:48.358Z,1007.42
2022-08-27T01:49:48.309Z,1007.47
2022-08-27T01:50:48.298Z,1007.44
2022-08-27T01:51:48.387Z,1007.47
2022-08-27T01:52:48.390Z,1007.44
2022-08-27T01:53:48.259Z,1007.43
2022-08-27T01:54:48.291Z,1007.47
2022-08-27T01:55:48.537Z,1007.44
2022-08-27T01:56:48.230Z,1007.47
2022-08-27T01:57:50.274Z,1007.48
2022-08-27T01:58:48.201Z,1007.45
2022-08-27T01:59:48.205Z,1007.50
2022-08-27T02:00:48.211Z,1007.51
2022-08-27T02:01:48.212Z,1007.50
2022-08-27T02:02:48.161Z,1007.49
2022-08-27T02:03:48.163Z,1007.53
2022-08-27T02:04:48.343Z,1007.51
2022-08-27T02:05:48.828Z,1007.53
2022-08-27T02:06:48.095Z,1007.58
2022-08-27T02:07:48.115Z,1007.55
2022-08-27T02:08:48.907Z,1007.53
2022-08-27T02:09:48.108Z,1007.56
2022-08-27T02:10:48.057Z,1007.60
2022-08-27T02:11:48.084Z,1007.55
2022-08-27T02:12:48.077Z,1007.54
2022-08-27T02:13:48.011Z,1007.57
2022-08-27T02:14:47.989Z,1007.56
2022-08-27T02:15:48.046Z,1007.57
2022-08-27T02:16:52.793Z,1007.59
2022-08-27T02:17:49.008Z,1007.53
2022-08-27T02:18:47.987Z,1007.63
2022-08-27T02:19:47.939Z,1007.54
2022-08-27T02:20:47.998Z,1007.52
2022-08-27T02:21:47.939Z,1007.53
2022-08-27T02:22:47.883Z,1007.57
2022-08-27T02:23:47.946Z,1007.53
2022-08-27T02:24:47.862Z,1007.54
2022-08-27T02:25:48.809Z,1007.54
2022-08-27T02:26:47.855Z,1007.56
2022-08-27T02:27:47.854Z,1007.62
2022-08-27T02:28:47.833Z,1007.60
2022-08-27T02:29:47.791Z,1007.55
2022-08-27T02:30:47.788Z,1007.57
2022-08-27T02:31:47.836Z,1007.57
2022-08-27T02:32:47.768Z,1007.61
2022-08-27T02:33:48.164Z,1007.52
2022-08-27T02:34:48.290Z,1007.57
2022-08-27T02:35:47.727Z,1007.60
2022-08-27T02:36:47.733Z,1007.60
2022-08-27T02:37:47.695Z,1007.62
2022-08-27T02:38:47.729Z,1007.65
2022-08-27T02:39:47.706Z,1007.64
2022-08-27T02:40:47.658Z,1007.62
2022-08-27T02:41:47.674Z,1007.63
2022-08-27T02:42:47.698Z,1007.61
2022-08-27T02:43:48.822Z,1007.60
2022-08-27T02:44:47.643Z,1007.63
2022-08-27T02:45:47.634Z,1007.63
2022-08-27T02:46:47.653Z,1007.61
2022-08-27T02:47:47.619Z,1007.61
2022-08-27T02:48:47.569Z,1007.66
2022-08-27T02:49:47.558Z,1007.66
2022-08-27T02:50:47.605Z,1007.64
2022-08-27T02:51:47.564Z,1007.65
2022-08-27T02:52:47.499Z,1007.66
2022-08-27T02:53:47.531Z,1007.68
2022-08-27T02:54:47.490Z,1007.66
2022-08-27T02:55:47.599Z,1007.64
2022-08-27T02:56:47.469Z,1007.63
2022-08-27T02:57:47.503Z,1007.63
2022-08-27T02:58:47.439Z,1007.63
2022-08-27T02:59:47.424Z,1007.63
2022-08-27T03:00:47.431Z,1007.70
2022-08-27T03:01:47.548Z,1007.65
2022-08-27T03:02:47.470Z,1007.63
2022-08-27T03:03:47.355Z,1007.61
2022-08-27T03:04:48.344Z,1007.67
2022-08-27T03:05:47.391Z,1007.69
2022-08-27T03:06:47.476Z,1007.64
2022-08-27T03:07:47.313Z,1007.64
2022-08-27T03:08:52.919Z,1007.65
2022-08-27T03:09:48.394Z,1007.67
2022-08-27T03:10:47.344Z,1007.63
2022-08-27T03:11:47.405Z,1007.64
2022-08-27T03:12:47.245Z,1007.65
2022-08-27T03:13:47.232Z,1007.67
2022-08-27T03:14:47.256Z,1007.68
2022-08-27T03:15:47.237Z,1007.60
2022-08-27T03:16:47.486Z,1007.66
2022-08-27T03:17:47.248Z,1007.60
2022-08-27T03:18:47.199Z,1007.63
2022-08-27T03:19:47.156Z,1007.58
2022-08-27T03:20:47.167Z,1007.64
2022-08-27T03:21:54.314Z,1007.62
2022-08-27T03:22:48.111Z,1007.56
2022-08-27T03:23:47.180Z,1007.57
2022-08-27T03:24:47.126Z,1007.55
2022-08-27T03:25:47.161Z,1007.55
2022-08-27T03:26:52.793Z,1007.53
2022-08-27T03:27:48.126Z,1007.54
2022-08-27T03:28:47.038Z,1007.54
2022-08-27T03:29:47.090Z,1007.52
2022-08-27T03:30:47.062Z,1007.50
2022-08-27T03:31:47.090Z,1007.53
2022-08-27T03:32:47.015Z,1007.53
2022-08-27T03:33:46.968Z,1007.49
2022-08-27T03:34:46.959Z,1007.53
2022-08-27T03:35:51.056Z,1007.54
2022-08-27T03:36:46.975Z,1007.56
2022-08-27T03:37:46.931Z,1007.49
2022-08-27T03:38:46.903Z,1007.49
2022-08-27T03:39:47.004Z,1007.51
2022-08-27T03:40:46.883Z,1007.50
2022-08-27T03:41:55.342Z,1007.50
2022-08-27T03:42:47.864Z,1007.48
2022-08-27T03:43:47.006Z,1007.53
2022-08-27T03:44:46.997Z,1007.55
2022-08-27T03:46:00.281Z,1007.49
2022-08-27T03:46:47.848Z,1007.53
2022-08-27T03:47:46.817Z,1007.52
2022-08-27T03:48:46.833Z,1007.50
2022-08-27T03:49:46.768Z,1007.49
2022-08-27T03:50:46.830Z,1007.53
2022-08-27T03:51:46.798Z,1007.47
2022-08-27T03:52:46.806Z,1007.50
2022-08-27T03:53:46.718Z,1007.49
2022-08-27T03:54:46.705Z,1007.46
2022-08-27T03:55:46.753Z,1007.45
2022-08-27T03:56:46.670Z,1007.44
2022-08-27T03:57:46.732Z,1007.43
2022-08-27T03:58:46.667Z,1007.45
2022-08-27T03:59:46.654Z,1007.44
2022-08-27T04:00:46.680Z,1007.46
2022-08-27T04:01:46.630Z,1007.51
2022-08-27T04:02:47.687Z,1007.46
2022-08-27T04:03:46.644Z,1007.48
2022-08-27T04:04:46.634Z,1007.46
2022-08-27T04:05:46.572Z,1007.46
2022-08-27T04:06:46.544Z,1007.41
2022-08-27T04:07:46.785Z,1007.46
2022-08-27T04:08:46.520Z,1007.45
2022-08-27T04:09:46.589Z,1007.47
2022-08-27T04:10:46.523Z,1007.46
2022-08-27T04:11:46.506Z,1007.47
2022-08-27T04:12:46.555Z,1007.48
2022-08-27T04:13:46.467Z,1007.49
2022-08-27T04:14:46.434Z,1007.44
2022-08-27T04:15:46.596Z,1007.47
2022-08-27T04:16:46.426Z,1007.45
2022-08-27T04:17:46.408Z,1007.47
2022-08-27T04:18:46.424Z,1007.45
2022-08-27T04:19:46.367Z,1007.47
2022-08-27T04:20:46.374Z,1007.43
2022-08-27T04:21:46.362Z,1007.47
2022-08-27T04:22:46.336Z,1007.47
2022-08-27T04:23:46.341Z,1007.45
2022-08-27T04:24:46.297Z,1007.45
2022-08-27T04:25:46.289Z,1007.46
2022-08-27T04:26:46.267Z,1007.49
2022-08-27T04:27:46.259Z,1007.49
2022-08-27T04:28:48.877Z,1007.48
2022-08-27T04:29:46.249Z,1007.53
2022-08-27T04:30:46.278Z,1007.51
2022-08-27T04:31:46.212Z,1007.47
2022-08-27T04:32:46.187Z,1007.53
2022-08-27T04:33:51.370Z,1007.48
2022-08-27T04:34:47.192Z,1007.54
2022-08-27T04:35:46.163Z,1007.56
2022-08-27T04:36:46.164Z,1007.55
2022-08-27T04:37:46.139Z,1007.54
2022-08-27T04:38:46.112Z,1007.61
2022-08-27T04:39:50.127Z,1007.63
2022-08-27T04:40:46.146Z,1007.69
2022-08-27T04:41:46.107Z,1007.64
2022-08-27T04:42:46.093Z,1007.69
2022-08-27T04:43:46.106Z,1007.65
2022-08-27T04:44:46.113Z,1007.66
2022-08-27T04:45:46.842Z,1007.66
2022-08-27T04:46:46.030Z,1007.69
2022-08-27T04:47:46.024Z,1007.73
2022-08-27T04:48:46.005Z,1007.62
2022-08-27T04:49:46.009Z,1007.67
2022-08-27T04:50:46.073Z,1007.66
2022-08-27T04:51:45.986Z,1007.65
2022-08-27T04:52:45.966Z,1007.70
2022-08-27T04:53:45.969Z,1007.67
2022-08-27T04:54:45.939Z,1007.69
2022-08-27T04:55:45.903Z,1007.68
2022-08-27T04:56:45.925Z,1007.73
2022-08-27T04:57:45.912Z,1007.72
2022-08-27T04:58:45.850Z,1007.70
2022-08-27T04:59:45.828Z,1007.67
2022-08-27T05:00:45.899Z,1007.70
2022-08-27T05:01:45.895Z,1007.64
2022-08-27T05:02:45.810Z,1007.65
2022-08-27T05:03:45.819Z,1007.63
2022-08-27T05:04:45.803Z,1007.65
2022-08-27T05:05:45.791Z,1007.65
2022-08-27T05:06:46.869Z,1007.65
2022-08-27T05:07:45.753Z,1007.61
2022-08-27T05:08:45.779Z,1007.65
2022-08-27T05:09:45.712Z,1007.64
2022-08-27T05:10:45.703Z,1007.64
2022-08-27T05:11:46.009Z,1007.64
2022-08-27T05:12:45.722Z,1007.67
2022-08-27T05:13:45.644Z,1007.67
2022-08-27T05:14:45.676Z,1007.69
2022-08-27T05:15:45.625Z,1007.65
2022-08-27T05:16:45.656Z,1007.68
2022-08-27T05:17:45.644Z,1007.68
2022-08-27T05:18:48.506Z,1007.72
2022-08-27T05:19:45.564Z,1007.68
2022-08-27T05:20:45.627Z,1007.63
2022-08-27T05:21:45.543Z,1007.60
2022-08-27T05:22:45.546Z,1007.66
2022-08-27T05:23:45.535Z,1007.75
2022-08-27T05:24:50.398Z,1007.71
2022-08-27T05:25:46.507Z,1007.71
2022-08-27T05:26:45.487Z,1007.70
2022-08-27T05:27:45.479Z,1007.68
2022-08-27T05:28:45.478Z,1007.66
2022-08-27T05:29:45.478Z,1007.66
2022-08-27T05:30:45.488Z,1007.68
2022-08-27T05:31:46.452Z,1007.72
2022-08-27T05:32:45.452Z,1007.68
2022-08-27T05:33:45.379Z,1007.66
2022-08-27T05:34:45.411Z,1007.69
2022-08-27T05:35:45.358Z,1007.71
2022-08-27T05:36:49.159Z,1007.72
2022-08-27T05:37:45.341Z,1007.74
2022-08-27T05:38:45.473Z,1007.73
2022-08-27T05:39:45.319Z,1007.67
2022-08-27T05:40:45.301Z,1007.68
2022-08-27T05:41:45.280Z,1007.66
2022-08-27T05:42:46.550Z,1007.63
2022-08-27T05:43:49.859Z,1007.68
2022-08-27T05:44:46.172Z,1007.66
2022-08-27T05:45:45.241Z,1007.66
2022-08-27T05:46:45.245Z,1007.67
2022-08-27T05:47:45.215Z,1007.66
2022-08-27T05:48:45.186Z,1007.66
2022-08-27T05:49:46.327Z,1007.61
2022-08-27T05:50:45.237Z,1007.69
2022-08-27T05:51:45.167Z,1007.67
2022-08-27T05:52:45.143Z,1007.65
2022-08-27T05:53:45.147Z,1007.64
2022-08-27T05:54:45.163Z,1007.64
2022-08-27T05:55:45.149Z,1007.66
2022-08-27T05:56:45.079Z,1007.70
2022-08-27T05:57:45.084Z,1007.69
2022-08-27T05:58:45.117Z,1007.69
2022-08-27T05:59:45.099Z,1007.71
2022-08-27T06:00:45.062Z,1007.70
2022-08-27T06:01:45.036Z,1007.68
2022-08-27T06:02:45.126Z,1007.66
2022-08-27T06:03:44.991Z,1007.65
2022-08-27T06:04:45.048Z,1007.70
2022-08-27T06:05:44.968Z,1007.65
2022-08-27T06:06:44.950Z,1007.67
2022-08-27T06:07:45.022Z,1007.67
2022-08-27T06:08:44.995Z,1007.63
2022-08-27T06:09:44.931Z,1007.68
2022-08-27T06:10:44.900Z,1007.67
2022-08-27T06:11:44.883Z,1007.69
2022-08-27T06:12:44.871Z,1007.64
2022-08-27T06:13:44.993Z,1007.64
2022-08-27T06:14:44.895Z,1007.68
2022-08-27T06:15:44.886Z,1007.67
2022-08-27T06:16:44.864Z,1007.67
2022-08-27T06:17:44.822Z,1007.67
2022-08-27T06:18:44.909Z,1007.71
2022-08-27T06:19:44.821Z,1007.72
2022-08-27T06:20:44.834Z,1007.71
2022-08-27T06:21:44.767Z,1007.72
2022-08-27T06:22:44.768Z,1007.73
2022-08-27T06:23:44.772Z,1007.71
2022-08-27T06:24:44.816Z,1007.76
2022-08-27T06:25:44.739Z,1007.71
2022-08-27T06:26:44.726Z,1007.70
2022-08-27T06:27:45.757Z,1007.72
2022-08-27T06:28:44.666Z,1007.72
2022-08-27T06:29:44.665Z,1007.69
2022-08-27T06:30:59.703Z,1007.73
2022-08-27T06:31:51.609Z,1007.77
2022-08-27T06:32:44.616Z,1007.77
2022-08-27T06:33:44.679Z,1007.76
2022-08-27T06:34:45.280Z,1007.77
2022-08-27T06:35:44.588Z,1007.72
2022-08-27T06:36:44.590Z,1007.78
2022-08-27T06:37:44.586Z,1007.75
2022-08-27T06:38:44.550Z,1007.73
2022-08-27T06:39:44.575Z,1007.73
2022-08-27T06:40:44.531Z,1007.74
2022-08-27T06:41:44.521Z,1007.72
2022-08-27T06:42:44.572Z,1007.71
2022-08-27T06:43:44.529Z,1007.77
2022-08-27T06:44:44.463Z,1007.77
2022-08-27T06:45:44.462Z,1007.77
2022-08-27T06:46:44.512Z,1007.78
2022-08-27T06:47:44.443Z,1007.75
2022-08-27T06:48:44.463Z,1007.78
2022-08-27T06:49:46.474Z,1007.81
2022-08-27T06:50:44.406Z,1007.86
2022-08-27T06:51:44.426Z,1007.82
2022-08-27T06:52:44.354Z,1007.80
2022-08-27T06:53:44.346Z,1007.83
2022-08-27T06:54:44.395Z,1007.90
2022-08-27T06:55:44.346Z,1007.85
2022-08-27T06:56:44.341Z,1007.89
2022-08-27T06:57:44.312Z,1007.88
2022-08-27T06:58:44.279Z,1007.91
2022-08-27T06:59:44.265Z,1007.91
2022-08-27T07:00:48.820Z,1007.90
2022-08-27T07:01:44.309Z,1007.94
2022-08-27T07:02:44.299Z,1007.93
2022-08-27T07:03:44.236Z,1007.93
2022-08-27T07:04:44.223Z,1007.95
2022-08-27T07:05:44.212Z,1007.97
2022-08-27T07:06:44.258Z,1007.98
2022-08-27T07:07:48.618Z,1007.97
2022-08-27T07:08:44.236Z,1007.95
2022-08-27T07:09:45.162Z,1008.00
2022-08-27T07:10:44.130Z,1007.98
2022-08-27T07:11:44.138Z,1007.99
2022-08-27T07:12:44.104Z,1008.02
2022-08-27T07:13:44.191Z,1007.99
2022-08-27T07:14:44.131Z,1008.00
2022-08-27T07:15:44.122Z,1007.93
2022-08-27T07:16:45.287Z,1007.96
2022-08-27T07:17:44.103Z,1007.93
2022-08-27T07:18:44.033Z,1007.96
2022-08-27T07:19:44.031Z,1007.99
2022-08-27T07:20:44.235Z,1007.97
2022-08-27T07:21:44.031Z,1007.97
2022-08-27T07:22:43.986Z,1007.99
2022-08-27T07:23:43.952Z,1007.97
2022-08-27T07:24:44.040Z,1007.99
2022-08-27T07:25:43.985Z,1007.99
2022-08-27T07:26:43.922Z,1008.06
2022-08-27T07:27:44.220Z,1008.04
2022-08-27T07:28:43.936Z,1008.07
2022-08-27T07:29:43.938Z,1008.08
2022-08-27T07:30:43.901Z,1008.07
2022-08-27T07:31:43.880Z,1008.11
2022-08-27T07:32:43.923Z,1008.15
2022-08-27T07:33:50.686Z,1008.11
2022-08-27T07:34:44.998Z,1008.18
2022-08-27T07:35:43.962Z,1008.14
2022-08-27T07:36:43.959Z,1008.15
2022-08-27T07:37:43.938Z,1008.12
2022-08-27T07:38:44.101Z,1008.11
2022-08-27T07:39:43.760Z,1008.08
2022-08-27T07:40:43.808Z,1008.08
2022-08-27T07:41:43.751Z,1008.13
2022-08-27T07:42:43.710Z,1008.13
2022-08-27T07:43:43.729Z,1008.15
2022-08-27T07:44:44.503Z,1008.16
2022-08-27T07:45:43.761Z,1008.12
2022-08-27T07:46:47.629Z,1008.14
2022-08-27T07:47:43.680Z,1008.16
2022-08-27T07:48:43.772Z,1008.16
2022-08-27T07:49:43.643Z,1008.20
2022-08-27T07:50:43.682Z,1008.18
2022-08-27T07:51:43.640Z,1008.19
2022-08-27T07:52:43.639Z,1008.19
2022-08-27T07:53:43.614Z,1008.20
2022-08-27T07:54:43.634Z,1008.22
2022-08-27T07:55:43.563Z,1008.23
2022-08-27T07:56:49.537Z,1008.21
2022-08-27T07:57:44.512Z,1008.25
2022-08-27T07:58:43.559Z,1008.27
2022-08-27T07:59:43.537Z,1008.27
2022-08-27T08:00:43.517Z,1008.31
2022-08-27T08:01:43.640Z,1008.27
2022-08-27T08:02:43.559Z,1008.31
2022-08-27T08:03:43.474Z,1008.29
2022-08-27T08:04:43.479Z,1008.31
2022-08-27T08:05:43.419Z,1008.36
2022-08-27T08:06:43.397Z,1008.35
2022-08-27T08:07:43.418Z,1008.31
2022-08-27T08:08:44.013Z,1008.34
2022-08-27T08:09:43.377Z,1008.36
2022-08-27T08:10:43.400Z,1008.35
2022-08-27T08:11:43.370Z,1008.36
2022-08-27T08:12:43.328Z,1008.39
2022-08-27T08:13:43.311Z,1008.36
2022-08-27T08:14:43.351Z,1008.43
2022-08-27T08:15:43.290Z,1008.39
2022-08-27T08:16:43.377Z,1008.41
2022-08-27T08:17:43.283Z,1008.45
2022-08-27T08:18:43.313Z,1008.45
2022-08-27T08:19:50.253Z,1008.44
2022-08-27T08:20:57.499Z,1008.43
2022-08-27T08:21:44.302Z,1008.47
2022-08-27T08:22:43.245Z,1008.43
2022-08-27T08:23:43.314Z,1008.44
2022-08-27T08:24:43.183Z,1008.43
2022-08-27T08:25:43.153Z,1008.43
2022-08-27T08:26:43.326Z,1008.43
2022-08-27T08:27:43.126Z,1008.39
2022-08-27T08:28:43.247Z,1008.43
2022-08-27T08:29:43.145Z,1008.42
2022-08-27T08:30:43.173Z,1008.46
2022-08-27T08:31:43.362Z,1008.43
2022-08-27T08:32:43.099Z,1008.41
2022-08-27T08:33:43.118Z,1008.51
2022-08-27T08:34:43.034Z,1008.43
2022-08-27T08:35:43.528Z,1008.48
2022-08-27T08:36:43.006Z,1008.48
2022-08-27T08:37:43.019Z,1008.48
2022-08-27T08:38:43.669Z,1008.49
2022-08-27T08:39:43.531Z,1008.48
2022-08-27T08:40:42.962Z,1008.48
2022-08-27T08:41:42.966Z,1008.49
2022-08-27T08:42:43.760Z,1008.56
2022-08-27T08:43:44.025Z,1008.51
2022-08-27T08:44:42.913Z,1008.51
2022-08-27T08:45:42.961Z,1008.55
2022-08-27T08:46:42.883Z,1008.55
2022-08-27T08:47:42.883Z,1008.55
2022-08-27T08:48:42.861Z,1008.53
2022-08-27T08:49:42.898Z,1008.56
2022-08-27T08:50:42.835Z,1008.57
2022-08-27T08:51:42.849Z,1008.57
2022-08-27T08:52:42.839Z,1008.57
2022-08-27T08:53:42.825Z,1008.61
2022-08-27T08:54:42.816Z,1008.61
2022-08-27T08:55:42.766Z,1008.63
2022-08-27T08:56:42.771Z,1008.61
2022-08-27T08:57:42.782Z,1008.59
2022-08-27T08:58:42.745Z,1008.61
2022-08-27T08:59:42.787Z,1008.62
2022-08-27T09:00:43.274Z,1008.61
2022-08-27T09:01:42.754Z,1008.61
2022-08-27T09:02:42.677Z,1008.61
2022-08-27T09:03:42.703Z,1008.62
2022-08-27T09:04:42.682Z,1008.66
2022-08-27T09:05:42.638Z,1008.60
2022-08-27T09:06:42.698Z,1008.61
2022-08-27T09:07:42.633Z,1008.60
2022-08-27T09:08:43.143Z,1008.62
2022-08-27T09:09:42.586Z,1008.62
2022-08-27T09:10:42.622Z,1008.59
2022-08-27T09:11:42.657Z,1008.63
2022-08-27T09:12:42.542Z,1008.62
2022-08-27T09:13:42.551Z,1008.63
2022-08-27T09:14:46.098Z,1008.59
2022-08-27T09:15:42.509Z,1008.62
2022-08-27T09:16:42.603Z,1008.64
2022-08-27T09:17:42.508Z,1008.60
2022-08-27T09:18:42.508Z,1008.65
2022-08-27T09:19:42.500Z,1008.67
2022-08-27T09:20:42.495Z,1008.69
2022-08-27T09:21:42.458Z,1008.71
2022-08-27T09:22:42.415Z,1008.64
2022-08-27T09:23:42.483Z,1008.64
2022-08-27T09:24:42.411Z,1008.69
2022-08-27T09:25:42.384Z,1008.65
2022-08-27T09:26:43.197Z,1008.65
2022-08-27T09:27:42.356Z,1008.68
2022-08-27T09:28:42.406Z,1008.64
2022-08-27T09:29:42.373Z,1008.65
2022-08-27T09:30:42.389Z,1008.67
2022-08-27T09:31:42.322Z,1008.66
2022-08-27T09:32:42.289Z,1008.71
2022-08-27T09:33:56.431Z,1008.77
2022-08-27T09:34:43.354Z,1008.75
2022-08-27T09:35:42.289Z,1008.72
2022-08-27T09:36:42.251Z,1008.72
2022-08-27T09:37:42.235Z,1008.74
2022-08-27T09:38:42.248Z,1008.79
2022-08-27T09:39:43.263Z,1008.76
2022-08-27T09:40:42.271Z,1008.75
2022-08-27T09:41:42.169Z,1008.79
2022-08-27T09:42:42.152Z,1008.80
2022-08-27T09:43:42.219Z,1008.82
2022-08-27T09:44:42.147Z,1008.78
2022-08-27T09:45:42.180Z,1008.79
2022-08-27T09:46:42.139Z,1008.81
2022-08-27T09:47:42.092Z,1008.76
2022-08-27T09:48:42.144Z,1008.75
2022-08-27T09:49:42.099Z,1008.76
2022-08-27T09:50:43.844Z,1008.85
2022-08-27T09:51:42.419Z,1008.78
2022-08-27T09:52:42.103Z,1008.82
2022-08-27T09:53:42.015Z,1008.80
2022-08-27T09:54:42.086Z,1008.78
2022-08-27T09:55:42.039Z,1008.82
2022-08-27T09:56:41.977Z,1008.83
2022-08-27T09:57:42.041Z,1008.86
2022-08-27T09:58:42.011Z,1008.88
2022-08-27T09:59:41.933Z,1008.86
2022-08-27T10:00:41.988Z,1008.89
2022-08-27T10:01:41.989Z,1008.85
2022-08-27T10:02:41.929Z,1008.86
2022-08-27T10:03:42.037Z,1008.87
2022-08-27T10:04:51.137Z,1008.83
2022-08-27T10:05:42.898Z,1008.81
2022-08-27T10:06:41.864Z,1008.86
2022-08-27T10:07:41.839Z,1008.83
2022-08-27T10:08:41.817Z,1008.83
2022-08-27T10:09:41.802Z,1008.82
2022-08-27T10:10:41.845Z,1008.86
2022-08-27T10:11:41.795Z,1008.85
2022-08-27T10:12:41.790Z,1008.82
2022-08-27T10:13:41.767Z,1008.82
2022-08-27T10:14:41.750Z,1008.84
2022-08-27T10:15:43.935Z,1008.86
2022-08-27T10:16:41.891Z,1008.83
2022-08-27T10:17:41.810Z,1008.86
2022-08-27T10:18:41.800Z,1008.86
2022-08-27T10:19:41.712Z,1008.82
2022-08-27T10:20:41.663Z,1008.80
2022-08-27T10:21:42.755Z,1008.84
2022-08-27T10:22:41.744Z,1008.87
2022-08-27T10:23:41.663Z,1008.81
2022-08-27T10:24:41.616Z,1008.85
2022-08-27T10:25:41.611Z,1008.88
2022-08-27T10:26:41.674Z,1008.87
2022-08-27T10:27:41.594Z,1008.80
2022-08-27T10:28:41.562Z,1008.86
2022-08-27T10:29:41.575Z,1008.85
2022-08-27T10:30:41.545Z,1008.83
2022-08-27T10:31:41.620Z,1008.86
2022-08-27T10:32:41.606Z,1008.82
2022-08-27T10:33:41.494Z,1008.83
2022-08-27T10:34:43.296Z,1008.86
2022-08-27T10:35:54.444Z,1008.83
2022-08-27T10:36:42.564Z,1008.82
2022-08-27T10:37:41.468Z,1008.85
2022-08-27T10:38:44.815Z,1008.83
2022-08-27T10:39:41.411Z,1008.83
2022-08-27T10:40:41.484Z,1008.85
2022-08-27T10:41:41.421Z,1008.86
2022-08-27T10:42:41.436Z,1008.88
2022-08-27T10:43:41.524Z,1008.89
2022-08-27T10:44:41.422Z,1008.89
2022-08-27T10:45:41.381Z,1008.91
2022-08-27T10:46:50.002Z,1008.92
2022-08-27T10:47:42.343Z,1008.92
2022-08-27T10:48:41.382Z,1008.92
2022-08-27T10:49:41.299Z,1008.93
2022-08-27T10:50:41.337Z,1008.96
2022-08-27T10:51:41.261Z,1008.96
2022-08-27T10:52:41.261Z,1008.98
2022-08-27T10:53:41.262Z,1008.92
2022-08-27T10:54:41.224Z,1008.92
2022-08-27T10:55:41.213Z,1008.93
2022-08-27T10:56:41.246Z,1008.92
2022-08-27T10:57:56.428Z,1008.88
2022-08-27T10:58:42.374Z,1008.88
2022-08-27T10:59:41.165Z,1008.92
2022-08-27T11:00:41.305Z,1008.92
2022-08-27T11:01:41.231Z,1008.91
2022-08-27T11:02:41.165Z,1008.91
2022-08-27T11:03:41.138Z,1008.95
2022-08-27T11:04:41.131Z,1008.91
2022-08-27T11:05:41.637Z,1008.90
2022-08-27T11:06:41.095Z,1008.94
2022-08-27T11:07:41.107Z,1008.91
2022-08-27T11:08:41.057Z,1008.93
2022-08-27T11:09:41.089Z,1008.93
2022-08-27T11:10:41.126Z,1008.92
2022-08-27T11:12:12.939Z,1008.99
2022-08-27T11:12:42.071Z,1008.93
2022-08-27T11:13:41.012Z,1008.92
2022-08-27T11:14:41.140Z,1008.90
2022-08-27T11:15:40.952Z,1008.90
2022-08-27T11:16:45.487Z,1008.94
2022-08-27T11:17:41.058Z,1008.91
2022-08-27T11:18:40.962Z,1008.94
2022-08-27T11:19:40.991Z,1008.94
2022-08-27T11:20:40.891Z,1008.97
2022-08-27T11:21:40.902Z,1008.99
2022-08-27T11:22:40.861Z,1008.99
2022-08-27T11:23:40.866Z,1008.97
2022-08-27T11:24:40.843Z,1009.02
2022-08-27T11:25:40.995Z,1009.04
2022-08-27T11:26:40.821Z,1009.04
2022-08-27T11:27:40.797Z,1009.05
2022-08-27T11:28:41.743Z,1009.04
2022-08-27T11:29:40.794Z,1009.12
2022-08-27T11:30:40.765Z,1009.05
2022-08-27T11:31:40.813Z,1009.08
2022-08-27T11:32:40.790Z,1009.09
2022-08-27T11:33:45.415Z,1009.13
2022-08-27T11:34:41.813Z,1009.10
2022-08-27T11:35:40.688Z,1009.10
2022-08-27T11:36:40.770Z,1009.15
2022-08-27T11:37:40.671Z,1009.14
2022-08-27T11:38:40.726Z,1009.13
2022-08-27T11:39:40.681Z,1009.14
2022-08-27T11:40:40.674Z,1009.11
2022-08-27T11:41:44.670Z,1009.12
2022-08-27T11:42:40.638Z,1009.12
2022-08-27T11:43:40.590Z,1009.16
2022-08-27T11:44:40.570Z,1009.13
2022-08-27T11:45:40.571Z,1009.12
2022-08-27T11:46:40.607Z,1009.13
2022-08-27T11:47:40.540Z,1009.14
2022-08-27T11:48:40.525Z,1009.19
2022-08-27T11:49:40.520Z,1009.17
2022-08-27T11:50:40.517Z,1009.18
2022-08-27T11:51:40.496Z,1009.20
2022-08-27T11:52:40.473Z,1009.20
2022-08-27T11:53:42.716Z,1009.21
2022-08-27T11:54:41.473Z,1009.20
2022-08-27T11:55:40.484Z,1009.20
2022-08-27T11:56:40.412Z,1009.14
2022-08-27T11:57:40.428Z,1009.18
2022-08-27T11:58:53.139Z,1009.17
2022-08-27T11:59:41.386Z,1009.22
2022-08-27T12:00:40.434Z,1009.20
2022-08-27T12:01:40.365Z,1009.22
2022-08-27T12:02:40.346Z,1009.17
2022-08-27T12:03:40.381Z,1009.19
2022-08-27T12:04:40.474Z,1009.22
2022-08-27T12:05:40.319Z,1009.23